createdAt,value
2022-07-29T00:01:19.422Z,9.60
2022-07-29T00:03:47.040Z,8.88
2022-07-29T00:06:15.161Z,10.65
2022-07-29T00:08:42.211Z,9.85
2022-07-29T00:11:09.313Z,8.65
2022-07-29T00:13:36.389Z,7.45
2022-07-29T00:16:05.096Z,6.35
2022-07-29T00:18:33.141Z,6.78
2022-07-29T00:21:00.809Z,5.78
2022-07-29T00:23:27.875Z,4.45
2022-07-29T00:25:55.219Z,4.20
2022-07-29T00:28:22.257Z,3.95
2022-07-29T00:30:49.215Z,4.10
2022-07-29T00:33:16.193Z,4.20
2022-07-29T00:35:46.093Z,4.32
2022-07-29T00:38:20.060Z,3.72
2022-07-29T00:40:47.858Z,3.72
2022-07-29T00:43:15.811Z,4.30
2022-07-29T00:45:43.516Z,4.03
2022-07-29T00:48:11.580Z,3.55
2022-07-29T00:50:39.345Z,3.58
2022-07-29T00:53:08.454Z,5.00
2022-07-29T00:55:36.462Z,3.63
2022-07-29T00:58:03.989Z,3.97
2022-07-29T01:00:31.438Z,3.58
2022-07-29T01:02:58.795Z,4.10
2022-07-29T01:05:48.501Z,3.35
2022-07-29T01:08:18.170Z,3.10
2022-07-29T01:10:46.743Z,3.95
2022-07-29T01:13:15.759Z,2.90
2022-07-29T01:15:50.446Z,4.03
2022-07-29T01:18:31.322Z,3.33
2022-07-29T01:21:12.839Z,3.28
2022-07-29T01:23:54.486Z,2.92
2022-07-29T01:27:02.702Z,3.20
2022-07-29T01:29:40.376Z,3.13
2022-07-29T01:32:27.621Z,3.33
2022-07-29T01:35:18.231Z,3.47
2022-07-29T01:37:49.780Z,3.65
2022-07-29T01:40:44.011Z,3.63
2022-07-29T01:43:17.209Z,3.22
2022-07-29T01:45:58.887Z,2.95
2022-07-29T01:48:40.420Z,3.78
2022-07-29T01:51:19.251Z,3.42
2022-07-29T01:54:04.725Z,3.47
2022-07-29T01:56:34.707Z,3.03
2022-07-29T01:59:05.524Z,3.38
2022-07-29T02:01:35.978Z,3.78
2022-07-29T02:04:11.068Z,3.60
2022-07-29T02:06:41.235Z,2.95
2022-07-29T02:09:10.303Z,3.78
2022-07-29T02:11:38.982Z,2.70
2022-07-29T02:14:07.865Z,2.83
2022-07-29T02:16:38.811Z,2.92
2022-07-29T02:19:07.682Z,2.55
2022-07-29T02:21:36.446Z,2.65
2022-07-29T02:24:05.321Z,2.47
2022-07-29T02:26:34.571Z,2.85
2022-07-29T02:29:03.168Z,2.50
2022-07-29T02:31:35.497Z,2.85
2022-07-29T02:34:07.397Z,3.97
2022-07-29T02:36:35.287Z,3.15
2022-07-29T02:39:05.099Z,2.55
2022-07-29T02:41:46.303Z,2.92
2022-07-29T02:44:17.319Z,2.33
2022-07-29T02:47:21.610Z,2.70
2022-07-29T02:50:05.305Z,2.95
2022-07-29T02:52:58.634Z,2.50
2022-07-29T02:55:47.024Z,2.90
2022-07-29T02:58:30.280Z,2.65
2022-07-29T03:01:04.092Z,2.67
2022-07-29T03:03:38.410Z,2.80
2022-07-29T03:06:07.461Z,2.63
2022-07-29T03:08:36.630Z,2.70
2022-07-29T03:11:04.712Z,2.47
2022-07-29T03:13:32.262Z,2.70
2022-07-29T03:16:00.015Z,2.70
2022-07-29T03:18:27.319Z,2.60
2022-07-29T03:20:54.365Z,3.40
2022-07-29T03:23:23.859Z,2.33
2022-07-29T03:25:52.102Z,2.97
2022-07-29T03:28:19.265Z,2.65
2022-07-29T03:30:46.838Z,2.67
2022-07-29T03:33:14.966Z,2.42
2022-07-29T03:35:42.351Z,2.55
2022-07-29T03:38:09.375Z,2.65
2022-07-29T03:41:11.481Z,2.65
2022-07-29T03:43:49.049Z,2.60
2022-07-29T03:46:18.920Z,2.40
2022-07-29T03:48:51.755Z,2.38
2022-07-29T03:51:19.010Z,2.78
2022-07-29T03:54:09.893Z,2.22
2022-07-29T03:56:43.053Z,2.22
2022-07-29T03:59:11.884Z,2.50
2022-07-29T04:01:40.777Z,3.08
2022-07-29T04:04:07.915Z,2.40
2022-07-29T04:06:48.314Z,2.58
2022-07-29T04:09:15.743Z,2.35
2022-07-29T04:12:01.663Z,1.95
2022-07-29T04:14:32.016Z,2.10
2022-07-29T04:16:59.251Z,2.47
2022-07-29T04:19:26.286Z,2.42
2022-07-29T04:21:53.491Z,2.13
2022-07-29T04:24:20.837Z,1.90
2022-07-29T04:26:48.697Z,1.75
2022-07-29T04:29:15.944Z,2.35
2022-07-29T04:31:43.941Z,2.00
2022-07-29T04:34:11.431Z,1.77
2022-07-29T04:36:38.681Z,1.80
2022-07-29T04:39:06.043Z,2.13
2022-07-29T04:41:33.793Z,1.60
2022-07-29T04:44:06.869Z,2.20
2022-07-29T04:46:39.805Z,1.50
2022-07-29T04:49:07.152Z,2.13
2022-07-29T04:51:34.558Z,2.13
2022-07-29T04:54:01.945Z,1.90
2022-07-29T04:56:31.379Z,2.00
2022-07-29T04:58:58.385Z,1.83
2022-07-29T05:01:25.431Z,1.70
2022-07-29T05:03:54.856Z,2.00
2022-07-29T05:06:24.045Z,1.92
2022-07-29T05:08:51.091Z,1.38
2022-07-29T05:11:21.319Z,1.80
2022-07-29T05:13:49.496Z,1.70
2022-07-29T05:16:16.503Z,1.75
2022-07-29T05:18:43.541Z,1.55
2022-07-29T05:21:10.633Z,1.55
2022-07-29T05:23:37.650Z,1.45
2022-07-29T05:26:04.636Z,2.03
2022-07-29T05:28:36.158Z,1.20
2022-07-29T05:31:03.364Z,1.50
2022-07-29T05:33:36.133Z,1.63
2022-07-29T05:36:07.627Z,1.42
2022-07-29T05:38:36.783Z,1.50
2022-07-29T05:41:06.155Z,1.25
2022-07-29T05:43:33.439Z,1.60
2022-07-29T05:46:00.465Z,1.27
2022-07-29T05:48:27.682Z,1.38
2022-07-29T05:50:55.450Z,1.00
2022-07-29T05:53:22.751Z,1.08
2022-07-29T05:55:50.260Z,1.15
2022-07-29T05:58:17.534Z,1.00
2022-07-29T06:00:44.716Z,1.10
2022-07-29T06:03:11.997Z,0.73
2022-07-29T06:05:39.001Z,0.90
2022-07-29T06:08:09.767Z,0.85
2022-07-29T06:10:37.226Z,0.70
2022-07-29T06:13:04.404Z,0.90
2022-07-29T06:15:31.470Z,1.15
2022-07-29T06:18:00.767Z,0.75
2022-07-29T06:20:32.975Z,0.85
2022-07-29T06:23:01.166Z,1.20
2022-07-29T06:25:31.847Z,0.75
2022-07-29T06:27:59.158Z,1.02
2022-07-29T06:30:26.269Z,0.70
2022-07-29T06:32:53.648Z,0.85
2022-07-29T06:35:41.756Z,0.88
2022-07-29T06:38:30.034Z,0.98
2022-07-29T06:41:05.116Z,1.02
2022-07-29T06:43:52.091Z,0.80
2022-07-29T06:46:22.442Z,0.80
2022-07-29T06:48:49.853Z,0.85
2022-07-29T06:51:22.607Z,1.02
2022-07-29T06:53:59.590Z,0.75
2022-07-29T06:56:39.434Z,1.02
2022-07-29T06:59:09.073Z,0.80
2022-07-29T07:01:42.467Z,0.90
2022-07-29T07:04:11.566Z,0.88
2022-07-29T07:06:39.418Z,0.47
2022-07-29T07:09:06.766Z,0.80
2022-07-29T07:11:34.918Z,0.70
2022-07-29T07:14:03.890Z,1.20
2022-07-29T07:16:42.191Z,0.80
2022-07-29T07:19:09.386Z,1.15
2022-07-29T07:21:36.630Z,0.88
2022-07-29T07:24:04.139Z,0.93
2022-07-29T07:26:31.358Z,0.82
2022-07-29T07:28:58.798Z,1.40
2022-07-29T07:31:26.055Z,1.00
2022-07-29T07:33:54.568Z,1.52
2022-07-29T07:36:21.882Z,1.08
2022-07-29T07:38:49.063Z,1.13
2022-07-29T07:41:16.137Z,0.90
2022-07-29T07:43:43.332Z,1.50
2022-07-29T07:46:10.477Z,0.95
2022-07-29T07:48:37.630Z,1.30
2022-07-29T07:51:04.760Z,0.90
2022-07-29T07:53:31.892Z,1.40
2022-07-29T07:56:10.543Z,0.93
2022-07-29T07:58:39.473Z,0.90
2022-07-29T08:01:06.617Z,1.20
2022-07-29T08:03:34.656Z,1.30
2022-07-29T08:06:02.190Z,1.08
2022-07-29T08:08:29.210Z,1.02
2022-07-29T08:11:02.219Z,1.08
2022-07-29T08:13:32.973Z,0.90
2022-07-29T08:16:12.443Z,1.10
2022-07-29T08:18:42.007Z,0.93
2022-07-29T08:21:09.275Z,1.30
2022-07-29T08:23:47.494Z,0.73
2022-07-29T08:26:17.791Z,0.90
2022-07-29T08:28:47.112Z,1.15
2022-07-29T08:31:15.016Z,0.90
2022-07-29T08:33:42.784Z,1.10
2022-07-29T08:36:10.675Z,1.02
2022-07-29T08:38:37.809Z,1.10
2022-07-29T08:41:04.869Z,1.10
2022-07-29T08:43:31.957Z,1.42
2022-07-29T08:45:59.280Z,0.98
2022-07-29T08:48:26.328Z,1.10
2022-07-29T08:50:57.689Z,0.95
2022-07-29T08:53:28.261Z,0.82
2022-07-29T08:55:55.748Z,0.90
2022-07-29T08:58:25.006Z,0.90
2022-07-29T09:00:58.112Z,1.13
2022-07-29T09:03:32.606Z,1.10
2022-07-29T09:06:04.398Z,1.58
2022-07-29T09:08:33.678Z,1.08
2022-07-29T09:11:03.929Z,1.08
2022-07-29T09:13:32.367Z,1.20
2022-07-29T09:15:59.370Z,1.17
2022-07-29T09:18:42.353Z,1.25
2022-07-29T09:21:32.063Z,1.05
2022-07-29T09:24:08.027Z,1.20
2022-07-29T09:26:43.936Z,0.90
2022-07-29T09:29:24.022Z,1.50
2022-07-29T09:31:54.701Z,0.93
2022-07-29T09:34:28.358Z,1.23
2022-07-29T09:36:56.769Z,0.90
2022-07-29T09:39:39.742Z,1.10
2022-07-29T09:42:07.590Z,1.13
2022-07-29T09:44:51.561Z,0.80
2022-07-29T09:47:20.058Z,0.85
2022-07-29T09:50:00.424Z,1.00
2022-07-29T09:52:30.014Z,0.98
2022-07-29T09:55:08.942Z,0.70
2022-07-29T09:57:36.846Z,0.93
2022-07-29T10:00:17.061Z,1.25
2022-07-29T10:02:47.015Z,1.23
2022-07-29T10:05:22.844Z,1.33
2022-07-29T10:07:57.233Z,1.48
2022-07-29T10:10:29.509Z,1.02
2022-07-29T10:13:04.553Z,0.95
2022-07-29T10:15:40.168Z,0.90
2022-07-29T10:18:09.036Z,0.77
2022-07-29T10:20:36.582Z,1.00
2022-07-29T10:23:04.277Z,1.40
2022-07-29T10:25:31.854Z,1.13
2022-07-29T10:27:59.348Z,0.80
2022-07-29T10:30:28.100Z,0.88
2022-07-29T10:33:28.662Z,0.90
2022-07-29T10:36:35.945Z,0.60
2022-07-29T10:39:49.809Z,0.85
2022-07-29T10:42:34.215Z,1.00
2022-07-29T10:45:04.771Z,0.77
2022-07-29T10:47:32.280Z,0.95
2022-07-29T10:50:06.316Z,0.90
2022-07-29T10:52:57.655Z,0.80
2022-07-29T10:55:43.744Z,0.80
2022-07-29T10:58:18.003Z,0.82
2022-07-29T11:00:51.830Z,0.70
2022-07-29T11:03:50.752Z,0.88
2022-07-29T11:06:26.999Z,0.70
2022-07-29T11:09:25.781Z,0.80
2022-07-29T11:12:02.892Z,1.83
2022-07-29T11:15:00.281Z,1.95
2022-07-29T11:17:27.763Z,1.05
2022-07-29T11:20:46.820Z,1.10
2022-07-29T11:23:36.674Z,0.65
2022-07-29T11:26:18.561Z,0.70
2022-07-29T11:28:52.279Z,0.63
2022-07-29T11:31:45.231Z,0.70
2022-07-29T11:34:36.655Z,0.55
2022-07-29T11:37:12.600Z,0.60
2022-07-29T11:39:55.678Z,0.80
2022-07-29T11:42:32.186Z,0.80
2022-07-29T11:48:29.971Z,0.68
2022-07-29T11:50:55.108Z,0.80
2022-07-29T11:53:25.710Z,0.85
2022-07-29T11:55:58.294Z,0.70
2022-07-29T11:58:26.161Z,1.13
2022-07-29T12:00:55.549Z,0.88
2022-07-29T12:06:17.990Z,0.80
2022-07-29T12:07:02.021Z,0.55
2022-07-29T12:07:02.500Z,1.23
2022-07-29T12:08:45.667Z,1.00
2022-07-29T12:11:22.726Z,1.70
2022-07-29T12:13:52.381Z,1.13
2022-07-29T12:16:27.994Z,1.15
2022-07-29T12:19:02.402Z,2.30
2022-07-29T12:21:53.605Z,1.17
2022-07-29T12:24:26.763Z,2.65
2022-07-29T12:27:00.673Z,1.48
2022-07-29T12:29:34.760Z,1.92
2022-07-29T12:32:05.374Z,1.50
2022-07-29T12:34:33.336Z,1.58
2022-07-29T12:37:00.733Z,1.05
2022-07-29T12:39:29.069Z,1.27
2022-07-29T12:42:04.187Z,1.30
2022-07-29T12:44:52.523Z,1.75
2022-07-29T12:47:21.009Z,1.00
2022-07-29T12:49:50.361Z,0.80
2022-07-29T12:52:35.553Z,1.15
2022-07-29T12:55:03.385Z,1.00
2022-07-29T12:57:31.039Z,0.98
2022-07-29T13:00:14.064Z,1.02
2022-07-29T13:02:43.614Z,0.77
2022-07-29T13:05:12.417Z,0.90
2022-07-29T13:07:55.389Z,0.90
2022-07-29T13:10:24.908Z,0.63
2022-07-29T13:13:11.837Z,1.00
2022-07-29T13:15:41.440Z,1.30
2022-07-29T13:18:33.104Z,2.10
2022-07-29T13:21:14.022Z,1.17
2022-07-29T13:23:41.763Z,0.98
2022-07-29T13:26:12.984Z,0.98
2022-07-29T13:28:44.170Z,1.02
2022-07-29T13:31:11.733Z,1.13
2022-07-29T13:33:38.959Z,0.80
2022-07-29T13:36:06.240Z,1.00
2022-07-29T13:38:33.210Z,0.90
2022-07-29T13:41:00.282Z,0.80
2022-07-29T13:43:27.484Z,0.75
2022-07-29T13:45:54.772Z,1.00
2022-07-29T13:48:21.842Z,0.93
2022-07-29T13:50:49.226Z,0.88
2022-07-29T13:53:18.003Z,0.90
2022-07-29T13:55:45.383Z,0.70
2022-07-29T13:58:12.402Z,0.80
2022-07-29T14:00:39.465Z,0.90
2022-07-29T14:03:07.441Z,0.75
2022-07-29T14:05:34.534Z,1.30
2022-07-29T14:08:01.497Z,1.40
2022-07-29T14:10:28.657Z,1.10
2022-07-29T14:12:55.647Z,0.90
2022-07-29T14:15:22.879Z,0.88
2022-07-29T14:17:49.901Z,0.93
2022-07-29T14:20:17.195Z,0.80
2022-07-29T14:22:44.978Z,1.02
2022-07-29T14:25:15.181Z,1.15
2022-07-29T14:27:44.634Z,1.10
2022-07-29T14:30:12.541Z,1.13
2022-07-29T14:32:39.520Z,0.80
2022-07-29T14:35:08.934Z,0.60
2022-07-29T14:37:39.957Z,0.80
2022-07-29T14:40:09.504Z,0.90
2022-07-29T14:42:38.075Z,0.88
2022-07-29T14:45:07.363Z,0.52
2022-07-29T14:47:35.334Z,0.75
2022-07-29T14:50:06.026Z,0.82
2022-07-29T14:52:33.055Z,0.88
2022-07-29T14:55:00.493Z,0.57
2022-07-29T14:57:27.577Z,0.70
2022-07-29T14:59:54.637Z,0.60
2022-07-29T15:02:23.732Z,0.75
2022-07-29T15:04:55.189Z,0.88
2022-07-29T15:07:22.303Z,1.10
2022-07-29T15:09:50.097Z,0.75
2022-07-29T15:12:17.559Z,0.73
2022-07-29T15:14:44.574Z,0.57
2022-07-29T15:17:11.626Z,0.90
2022-07-29T15:19:38.657Z,0.90
2022-07-29T15:22:11.858Z,0.90
2022-07-29T15:24:38.857Z,0.80
2022-07-29T15:27:06.127Z,1.00
2022-07-29T15:29:33.810Z,0.80
2022-07-29T15:32:01.223Z,1.10
2022-07-29T15:34:28.583Z,0.60
2022-07-29T15:36:55.580Z,0.85
2022-07-29T15:39:23.306Z,0.90
2022-07-29T15:41:50.914Z,1.15
2022-07-29T15:44:18.676Z,1.13
2022-07-29T15:47:05.623Z,0.80
2022-07-29T15:49:46.582Z,0.88
2022-07-29T15:52:25.077Z,1.08
2022-07-29T15:54:55.469Z,0.88
2022-07-29T15:57:23.246Z,0.68
2022-07-29T15:59:50.800Z,0.73
2022-07-29T16:02:18.060Z,1.20
2022-07-29T16:04:46.130Z,0.90
2022-07-29T16:07:14.174Z,0.80
2022-07-29T16:09:42.526Z,0.70
2022-07-29T16:12:15.103Z,1.02
2022-07-29T16:14:45.379Z,0.95
2022-07-29T16:17:14.853Z,0.80
2022-07-29T16:19:45.752Z,1.00
2022-07-29T16:22:15.385Z,1.15
2022-07-29T16:24:42.458Z,0.90
2022-07-29T16:27:10.040Z,0.80
2022-07-29T16:29:37.430Z,0.70
2022-07-29T16:32:06.008Z,1.02
2022-07-29T16:34:33.223Z,0.70
2022-07-29T16:37:00.746Z,0.80
2022-07-29T16:39:28.003Z,1.08
2022-07-29T16:41:59.535Z,0.88
2022-07-29T16:44:27.526Z,1.02
2022-07-29T16:46:55.949Z,1.10
2022-07-29T16:49:23.344Z,1.05
2022-07-29T16:51:50.491Z,0.80
2022-07-29T16:54:17.471Z,1.00
2022-07-29T16:56:44.429Z,0.98
2022-07-29T16:59:11.584Z,0.82
2022-07-29T17:01:38.594Z,1.30
2022-07-29T17:04:06.008Z,1.23
2022-07-29T17:06:39.105Z,0.98
2022-07-29T17:09:08.799Z,0.98
2022-07-29T17:11:53.135Z,1.30
2022-07-29T17:14:28.190Z,0.77
2022-07-29T17:17:01.155Z,0.70
2022-07-29T17:19:35.484Z,1.00
2022-07-29T17:22:18.799Z,0.70
2022-07-29T17:24:47.680Z,0.90
2022-07-29T17:27:14.839Z,1.38
2022-07-29T17:29:42.109Z,0.80
2022-07-29T17:32:10.269Z,1.08
2022-07-29T17:34:38.827Z,1.10
2022-07-29T17:37:09.359Z,0.80
2022-07-29T17:39:37.078Z,1.10
2022-07-29T17:42:04.821Z,0.95
2022-07-29T17:44:36.079Z,0.80
2022-07-29T17:47:04.770Z,0.85
2022-07-29T17:49:32.356Z,1.08
2022-07-29T17:52:01.149Z,1.15
2022-07-29T17:54:28.539Z,1.20
2022-07-29T17:56:55.745Z,1.20
2022-07-29T17:59:22.788Z,0.90
2022-07-29T18:01:49.918Z,1.10
2022-07-29T18:04:20.923Z,1.05
2022-07-29T18:06:48.024Z,0.90
2022-07-29T18:09:15.036Z,1.00
2022-07-29T18:11:45.573Z,1.20
2022-07-29T18:14:13.541Z,1.02
2022-07-29T18:16:40.873Z,1.25
2022-07-29T18:19:08.137Z,1.02
2022-07-29T18:21:43.445Z,0.95
2022-07-29T18:24:21.384Z,1.40
2022-07-29T18:26:48.364Z,1.48
2022-07-29T18:29:15.375Z,0.95
2022-07-29T18:31:42.413Z,1.20
2022-07-29T18:34:09.474Z,1.00
2022-07-29T18:36:36.566Z,1.73
2022-07-29T18:39:03.764Z,1.30
2022-07-29T18:41:30.733Z,1.25
2022-07-29T18:43:57.701Z,1.20
2022-07-29T18:46:24.836Z,1.27
2022-07-29T18:48:52.702Z,1.30
2022-07-29T18:51:19.786Z,1.00
2022-07-29T18:53:46.939Z,1.10
2022-07-29T18:56:14.117Z,1.60
2022-07-29T18:58:41.154Z,1.13
2022-07-29T19:01:08.219Z,1.85
2022-07-29T19:03:35.332Z,0.90
2022-07-29T19:06:02.386Z,1.30
2022-07-29T19:08:29.479Z,1.20
2022-07-29T19:10:56.437Z,1.50
2022-07-29T19:13:23.632Z,1.15
2022-07-29T19:15:50.761Z,1.33
2022-07-29T19:18:17.784Z,1.52
2022-07-29T19:20:44.739Z,1.50
2022-07-29T19:23:11.952Z,0.80
2022-07-29T19:25:53.179Z,1.15
2022-07-29T19:28:22.150Z,1.27
2022-07-29T19:30:49.729Z,1.35
2022-07-29T19:33:18.924Z,1.27
2022-07-29T19:35:49.285Z,1.40
2022-07-29T19:38:18.822Z,1.50
2022-07-29T19:40:45.795Z,1.10
2022-07-29T19:43:50.479Z,1.48
2022-07-29T19:45:59.887Z,1.65
2022-07-29T19:48:26.996Z,1.30
2022-07-29T19:50:53.996Z,1.75
2022-07-29T19:53:20.965Z,1.10
2022-07-29T19:55:48.162Z,1.20
2022-07-29T19:58:15.291Z,1.00
2022-07-29T20:00:42.524Z,1.05
2022-07-29T20:03:10.833Z,1.40
2022-07-29T20:05:37.874Z,1.38
2022-07-29T20:08:06.297Z,1.05
2022-07-29T20:10:33.876Z,1.35
2022-07-29T20:13:00.968Z,1.42
2022-07-29T20:15:28.037Z,2.03
2022-07-29T20:17:57.697Z,1.35
2022-07-29T20:20:25.382Z,1.42
2022-07-29T20:22:53.106Z,0.90
2022-07-29T20:25:20.155Z,1.15
2022-07-29T20:27:49.578Z,1.48
2022-07-29T20:30:16.798Z,1.60
2022-07-29T20:32:45.815Z,1.50
2022-07-29T20:35:13.427Z,1.73
2022-07-29T20:37:52.513Z,1.77
2022-07-29T20:40:24.973Z,1.55
2022-07-29T20:42:52.474Z,1.88
2022-07-29T20:45:20.172Z,1.52
2022-07-29T20:47:47.268Z,1.90
2022-07-29T20:50:14.351Z,2.45
2022-07-29T20:52:43.339Z,1.88
2022-07-29T20:55:11.148Z,1.50
2022-07-29T20:57:39.869Z,1.70
2022-07-29T21:00:09.167Z,1.42
2022-07-29T21:02:36.710Z,1.50
2022-07-29T21:05:04.293Z,1.50
2022-07-29T21:07:31.254Z,1.65
2022-07-29T21:09:58.267Z,2.03
2022-07-29T21:12:25.255Z,1.52
2022-07-29T21:14:52.277Z,1.60
2022-07-29T21:17:22.660Z,1.70
2022-07-29T21:19:55.329Z,2.03
2022-07-29T21:22:22.531Z,2.42
2022-07-29T21:24:49.757Z,1.85
2022-07-29T21:27:38.232Z,1.50
2022-07-29T21:30:09.957Z,1.63
2022-07-29T21:32:37.240Z,1.60
2022-07-29T21:35:18.292Z,1.33
2022-07-29T21:37:51.958Z,1.42
2022-07-29T21:40:18.943Z,1.75
2022-07-29T21:42:45.995Z,3.22
2022-07-29T21:45:15.858Z,1.58
2022-07-29T21:47:42.881Z,1.40
2022-07-29T21:50:10.127Z,1.40
2022-07-29T21:52:38.948Z,1.50
2022-07-29T21:55:07.715Z,1.45
2022-07-29T21:57:37.723Z,1.67
2022-07-29T22:00:08.429Z,1.42
2022-07-29T22:02:35.415Z,1.42
2022-07-29T22:05:02.509Z,1.52
2022-07-29T22:07:55.835Z,1.90
2022-07-29T22:10:16.773Z,1.40
2022-07-29T22:12:43.869Z,1.60
2022-07-29T22:15:11.532Z,1.35
2022-07-29T22:17:40.347Z,1.25
2022-07-29T22:20:08.001Z,1.55
2022-07-29T22:22:35.234Z,1.17
2022-07-29T22:25:02.838Z,1.75
2022-07-29T22:27:29.832Z,1.90
2022-07-29T22:29:58.878Z,1.45
2022-07-29T22:32:25.975Z,1.60
2022-07-29T22:34:53.187Z,1.48
2022-07-29T22:37:20.655Z,1.65
2022-07-29T22:39:47.765Z,1.30
2022-07-29T22:42:14.720Z,1.35
2022-07-29T22:44:41.732Z,1.35
2022-07-29T22:47:08.900Z,1.60
2022-07-29T22:49:35.885Z,1.85
2022-07-29T22:52:03.331Z,1.58
2022-07-29T22:54:30.360Z,1.27
2022-07-29T22:56:57.518Z,1.55
2022-07-29T22:59:24.680Z,1.50
2022-07-29T23:01:51.822Z,1.95
2022-07-29T23:04:23.579Z,1.60
2022-07-29T23:06:51.235Z,1.65
2022-07-29T23:09:18.467Z,1.58
2022-07-29T23:11:46.174Z,1.52
2022-07-29T23:14:13.479Z,1.48
2022-07-29T23:16:40.747Z,1.20
2022-07-29T23:19:07.786Z,1.52
2022-07-29T23:21:34.787Z,2.05
2022-07-29T23:24:01.942Z,1.17
2022-07-29T23:26:29.037Z,1.77
2022-07-29T23:28:56.043Z,1.70
2022-07-29T23:31:23.033Z,1.48
2022-07-29T23:33:49.992Z,1.80
2022-07-29T23:36:17.059Z,1.40
2022-07-29T23:38:45.899Z,1.50
2022-07-29T23:41:12.935Z,1.50
2022-07-29T23:43:39.905Z,1.50
2022-07-29T23:46:06.927Z,1.73
2022-07-29T23:48:34.478Z,1.73
2022-07-29T23:51:01.732Z,1.60
2022-07-29T23:53:29.342Z,1.73
2022-07-29T23:55:57.077Z,1.98
2022-07-29T23:58:24.326Z,1.50
